sensor_id;sensor_type;location;lat;lon;timestamp;P1;durP1;ratioP1;P2;durP2;ratioP2
43435;SDS011;36399;51.444;-2.018;2022-09-09T00:04:58;17.20;;;4.73;;
43435;SDS011;36399;51.444;-2.018;2022-09-09T00:15:33;12.43;;;4.57;;
43435;SDS011;36399;51.444;-2.018;2022-09-09T00:21:05;11.10;;;4.13;;
43435;SDS011;36399;51.444;-2.018;2022-09-09T00:23:46;11.90;;;5.10;;
43435;SDS011;36399;51.444;-2.018;2022-09-09T00:29:05;19.33;;;5.10;;
43435;SDS011;36399;51.444;-2.018;2022-09-09T00:31:42;13.90;;;4.93;;
43435;SDS011;36399;51.444;-2.018;2022-09-09T00:34:24;17.40;;;5.33;;
43435;SDS011;36399;51.444;-2.018;2022-09-09T00:36:53;14.27;;;5.67;;
43435;SDS011;36399;51.444;-2.018;2022-09-09T00:39:32;12.07;;;4.43;;
43435;SDS011;36399;51.444;-2.018;2022-09-09T00:44:35;13.80;;;4.83;;
43435;SDS011;36399;51.444;-2.018;2022-09-09T00:47:12;10.27;;;5.00;;
43435;SDS011;36399;51.444;-2.018;2022-09-09T00:57:18;10.50;;;4.90;;
43435;SDS011;36399;51.444;-2.018;2022-09-09T00:59:51;10.37;;;4.43;;
43435;SDS011;36399;51.444;-2.018;2022-09-09T01:02:35;15.63;;;6.40;;
43435;SDS011;36399;51.444;-2.018;2022-09-09T01:05:13;14.73;;;6.20;;
43435;SDS011;36399;51.444;-2.018;2022-09-09T01:07:52;17.50;;;7.20;;
43435;SDS011;36399;51.444;-2.018;2022-09-09T01:10:31;17.63;;;7.23;;
43435;SDS011;36399;51.444;-2.018;2022-09-09T01:13:02;23.90;;;7.90;;
43435;SDS011;36399;51.444;-2.018;2022-09-09T01:15:36;18.70;;;8.10;;
43435;SDS011;36399;51.444;-2.018;2022-09-09T01:18:05;18.40;;;7.70;;
43435;SDS011;36399;51.444;-2.018;2022-09-09T01:20:38;21.37;;;8.60;;
43435;SDS011;36399;51.444;-2.018;2022-09-09T01:23:38;22.77;;;8.03;;
43435;SDS011;36399;51.444;-2.018;2022-09-09T01:26:30;23.27;;;8.93;;
43435;SDS011;36399;51.444;-2.018;2022-09-09T01:29:00;26.33;;;9.93;;
43435;SDS011;36399;51.444;-2.018;2022-09-09T01:31:28;34.47;;;10.37;;
43435;SDS011;36399;51.444;-2.018;2022-09-09T01:33:58;26.23;;;9.47;;
43435;SDS011;36399;51.444;-2.018;2022-09-09T01:36:26;30.47;;;9.63;;
43435;SDS011;36399;51.444;-2.018;2022-09-09T01:38:59;30.73;;;11.23;;
43435;SDS011;36399;51.444;-2.018;2022-09-09T01:41:25;31.00;;;10.97;;
43435;SDS011;36399;51.444;-2.018;2022-09-09T01:43:52;29.90;;;12.80;;
43435;SDS011;36399;51.444;-2.018;2022-09-09T01:46:21;30.53;;;11.53;;
43435;SDS011;36399;51.444;-2.018;2022-09-09T01:48:48;28.13;;;12.03;;
43435;SDS011;36399;51.444;-2.018;2022-09-09T01:51:18;30.33;;;10.00;;
43435;SDS011;36399;51.444;-2.018;2022-09-09T01:53:45;28.67;;;11.60;;
43435;SDS011;36399;51.444;-2.018;2022-09-09T02:01:46;25.30;;;10.67;;
43435;SDS011;36399;51.444;-2.018;2022-09-09T02:09:49;24.03;;;10.23;;
43435;SDS011;36399;51.444;-2.018;2022-09-09T02:12:23;24.63;;;10.27;;
43435;SDS011;36399;51.444;-2.018;2022-09-09T02:14:52;20.73;;;10.33;;
43435;SDS011;36399;51.444;-2.018;2022-09-09T02:17:29;21.07;;;8.90;;
43435;SDS011;36399;51.444;-2.018;2022-09-09T02:20:02;18.57;;;9.60;;
43435;SDS011;36399;51.444;-2.018;2022-09-09T02:22:32;17.53;;;9.03;;
43435;SDS011;36399;51.444;-2.018;2022-09-09T02:25:01;21.70;;;9.70;;
43435;SDS011;36399;51.444;-2.018;2022-09-09T02:27:30;21.47;;;9.47;;
43435;SDS011;36399;51.444;-2.018;2022-09-09T02:29:56;20.33;;;10.00;;
43435;SDS011;36399;51.444;-2.018;2022-09-09T02:32:27;25.47;;;9.77;;
43435;SDS011;36399;51.444;-2.018;2022-09-09T02:34:58;23.20;;;10.20;;
43435;SDS011;36399;51.444;-2.018;2022-09-09T02:37:35;20.70;;;8.40;;
43435;SDS011;36399;51.444;-2.018;2022-09-09T02:40:08;19.15;;;8.93;;
43435;SDS011;36399;51.444;-2.018;2022-09-09T02:42:42;15.47;;;8.77;;
43435;SDS011;36399;51.444;-2.018;2022-09-09T02:45:10;17.87;;;9.27;;
43435;SDS011;36399;51.444;-2.018;2022-09-09T02:47:43;18.00;;;8.50;;
43435;SDS011;36399;51.444;-2.018;2022-09-09T02:58:06;15.03;;;6.87;;
43435;SDS011;36399;51.444;-2.018;2022-09-09T03:00:37;12.43;;;6.17;;
43435;SDS011;36399;51.444;-2.018;2022-09-09T03:03:05;9.93;;;4.90;;
43435;SDS011;36399;51.444;-2.018;2022-09-09T03:05:34;10.97;;;4.77;;
43435;SDS011;36399;51.444;-2.018;2022-09-09T03:08:00;10.17;;;4.53;;
43435;SDS011;36399;51.444;-2.018;2022-09-09T03:10:27;7.80;;;4.40;;
43435;SDS011;36399;51.444;-2.018;2022-09-09T03:12:53;10.87;;;4.87;;
43435;SDS011;36399;51.444;-2.018;2022-09-09T03:15:21;6.87;;;3.80;;
43435;SDS011;36399;51.444;-2.018;2022-09-09T03:17:47;8.90;;;4.47;;
43435;SDS011;36399;51.444;-2.018;2022-09-09T03:20:13;7.63;;;4.20;;
43435;SDS011;36399;51.444;-2.018;2022-09-09T03:22:39;8.17;;;4.40;;
43435;SDS011;36399;51.444;-2.018;2022-09-09T03:25:05;7.47;;;3.93;;
43435;SDS011;36399;51.444;-2.018;2022-09-09T03:27:32;9.47;;;4.20;;
43435;SDS011;36399;51.444;-2.018;2022-09-09T03:29:58;9.33;;;4.40;;
43435;SDS011;36399;51.444;-2.018;2022-09-09T03:32:24;8.43;;;4.03;;
43435;SDS011;36399;51.444;-2.018;2022-09-09T03:34:51;6.13;;;3.63;;
43435;SDS011;36399;51.444;-2.018;2022-09-09T03:37:21;8.03;;;3.83;;
43435;SDS011;36399;51.444;-2.018;2022-09-09T03:39:48;8.93;;;4.50;;
43435;SDS011;36399;51.444;-2.018;2022-09-09T03:42:14;8.23;;;3.90;;
43435;SDS011;36399;51.444;-2.018;2022-09-09T03:44:44;7.23;;;4.27;;
43435;SDS011;36399;51.444;-2.018;2022-09-09T03:47:18;8.50;;;3.40;;
43435;SDS011;36399;51.444;-2.018;2022-09-09T03:49:47;9.60;;;3.90;;
43435;SDS011;36399;51.444;-2.018;2022-09-09T03:52:14;7.27;;;4.07;;
43435;SDS011;36399;51.444;-2.018;2022-09-09T03:54:40;8.60;;;4.13;;
43435;SDS011;36399;51.444;-2.018;2022-09-09T03:57:08;8.20;;;4.00;;
43435;SDS011;36399;51.444;-2.018;2022-09-09T03:59:35;11.10;;;4.43;;
43435;SDS011;36399;51.444;-2.018;2022-09-09T04:02:02;8.53;;;4.00;;
43435;SDS011;36399;51.444;-2.018;2022-09-09T04:04:28;9.87;;;3.77;;
43435;SDS011;36399;51.444;-2.018;2022-09-09T04:06:54;7.83;;;4.07;;
43435;SDS011;36399;51.444;-2.018;2022-09-09T04:09:20;6.73;;;3.87;;
43435;SDS011;36399;51.444;-2.018;2022-09-09T04:11:47;8.07;;;3.63;;
43435;SDS011;36399;51.444;-2.018;2022-09-09T04:14:12;9.27;;;3.70;;
43435;SDS011;36399;51.444;-2.018;2022-09-09T04:16:38;9.23;;;3.80;;
43435;SDS011;36399;51.444;-2.018;2022-09-09T04:19:05;7.60;;;3.63;;
43435;SDS011;36399;51.444;-2.018;2022-09-09T04:21:32;7.77;;;4.10;;
43435;SDS011;36399;51.444;-2.018;2022-09-09T04:23:58;7.67;;;3.13;;
43435;SDS011;36399;51.444;-2.018;2022-09-09T04:26:24;7.00;;;3.77;;
43435;SDS011;36399;51.444;-2.018;2022-09-09T04:28:50;7.63;;;4.10;;
43435;SDS011;36399;51.444;-2.018;2022-09-09T04:31:17;6.97;;;3.47;;
43435;SDS011;36399;51.444;-2.018;2022-09-09T04:33:45;7.17;;;3.70;;
43435;SDS011;36399;51.444;-2.018;2022-09-09T04:36:12;7.30;;;4.17;;
43435;SDS011;36399;51.444;-2.018;2022-09-09T04:38:38;8.27;;;4.40;;
43435;SDS011;36399;51.444;-2.018;2022-09-09T04:41:05;7.83;;;3.83;;
43435;SDS011;36399;51.444;-2.018;2022-09-09T04:43:31;10.07;;;4.53;;
43435;SDS011;36399;51.444;-2.018;2022-09-09T04:45:57;10.50;;;3.83;;
43435;SDS011;36399;51.444;-2.018;2022-09-09T04:48:24;8.43;;;3.50;;
43435;SDS011;36399;51.444;-2.018;2022-09-09T04:50:54;6.87;;;3.63;;
43435;SDS011;36399;51.444;-2.018;2022-09-09T04:53:22;7.67;;;4.10;;
43435;SDS011;36399;51.444;-2.018;2022-09-09T04:55:48;9.50;;;3.70;;
43435;SDS011;36399;51.444;-2.018;2022-09-09T04:58:14;7.87;;;3.63;;
43435;SDS011;36399;51.444;-2.018;2022-09-09T05:00:40;11.63;;;4.30;;
43435;SDS011;36399;51.444;-2.018;2022-09-09T05:03:07;6.77;;;4.10;;
43435;SDS011;36399;51.444;-2.018;2022-09-09T05:05:34;5.37;;;3.23;;
43435;SDS011;36399;51.444;-2.018;2022-09-09T05:08:03;7.27;;;3.57;;
43435;SDS011;36399;51.444;-2.018;2022-09-09T05:10:30;9.53;;;4.00;;
43435;SDS011;36399;51.444;-2.018;2022-09-09T05:12:56;7.07;;;3.60;;
43435;SDS011;36399;51.444;-2.018;2022-09-09T05:15:22;7.80;;;3.80;;
43435;SDS011;36399;51.444;-2.018;2022-09-09T05:17:48;6.33;;;3.43;;
43435;SDS011;36399;51.444;-2.018;2022-09-09T05:20:14;8.27;;;3.73;;
43435;SDS011;36399;51.444;-2.018;2022-09-09T05:22:40;8.30;;;3.63;;
43435;SDS011;36399;51.444;-2.018;2022-09-09T05:25:06;7.63;;;3.27;;
43435;SDS011;36399;51.444;-2.018;2022-09-09T05:27:33;4.93;;;3.23;;
43435;SDS011;36399;51.444;-2.018;2022-09-09T05:30:00;6.67;;;3.63;;
43435;SDS011;36399;51.444;-2.018;2022-09-09T05:32:26;7.30;;;3.30;;
43435;SDS011;36399;51.444;-2.018;2022-09-09T05:34:52;9.07;;;3.57;;
43435;SDS011;36399;51.444;-2.018;2022-09-09T05:37:18;6.63;;;2.73;;
43435;SDS011;36399;51.444;-2.018;2022-09-09T05:39:44;6.23;;;2.97;;
43435;SDS011;36399;51.444;-2.018;2022-09-09T05:42:10;6.57;;;2.63;;
43435;SDS011;36399;51.444;-2.018;2022-09-09T05:44:36;9.00;;;3.50;;
43435;SDS011;36399;51.444;-2.018;2022-09-09T05:47:02;5.73;;;3.00;;
43435;SDS011;36399;51.444;-2.018;2022-09-09T05:49:28;6.00;;;3.47;;
43435;SDS011;36399;51.444;-2.018;2022-09-09T05:51:54;9.67;;;2.90;;
43435;SDS011;36399;51.444;-2.018;2022-09-09T05:54:20;7.10;;;2.83;;
43435;SDS011;36399;51.444;-2.018;2022-09-09T05:56:46;6.23;;;2.40;;
43435;SDS011;36399;51.444;-2.018;2022-09-09T05:59:15;4.20;;;2.13;;
43435;SDS011;36399;51.444;-2.018;2022-09-09T06:01:41;5.57;;;3.17;;
43435;SDS011;36399;51.444;-2.018;2022-09-09T06:04:07;5.70;;;2.07;;
43435;SDS011;36399;51.444;-2.018;2022-09-09T06:06:35;5.97;;;2.77;;
43435;SDS011;36399;51.444;-2.018;2022-09-09T06:09:02;6.60;;;2.30;;
43435;SDS011;36399;51.444;-2.018;2022-09-09T06:11:32;5.07;;;2.60;;
43435;SDS011;36399;51.444;-2.018;2022-09-09T06:13:59;3.83;;;2.23;;
43435;SDS011;36399;51.444;-2.018;2022-09-09T06:16:26;7.63;;;3.03;;
43435;SDS011;36399;51.444;-2.018;2022-09-09T06:18:54;4.87;;;2.40;;
43435;SDS011;36399;51.444;-2.018;2022-09-09T06:21:25;6.70;;;2.03;;
43435;SDS011;36399;51.444;-2.018;2022-09-09T06:23:53;5.67;;;2.80;;
43435;SDS011;36399;51.444;-2.018;2022-09-09T06:26:23;3.90;;;1.97;;
43435;SDS011;36399;51.444;-2.018;2022-09-09T06:28:51;5.50;;;2.10;;
43435;SDS011;36399;51.444;-2.018;2022-09-09T06:31:22;5.83;;;2.10;;
43435;SDS011;36399;51.444;-2.018;2022-09-09T06:33:50;4.50;;;1.63;;
43435;SDS011;36399;51.444;-2.018;2022-09-09T06:36:18;3.90;;;1.87;;
43435;SDS011;36399;51.444;-2.018;2022-09-09T06:38:45;5.43;;;1.67;;
43435;SDS011;36399;51.444;-2.018;2022-09-09T06:41:13;4.30;;;1.27;;
43435;SDS011;36399;51.444;-2.018;2022-09-09T06:43:40;3.80;;;1.37;;
43435;SDS011;36399;51.444;-2.018;2022-09-09T06:46:08;3.23;;;1.30;;
43435;SDS011;36399;51.444;-2.018;2022-09-09T06:48:36;3.33;;;1.20;;
43435;SDS011;36399;51.444;-2.018;2022-09-09T06:53:32;5.17;;;1.67;;
43435;SDS011;36399;51.444;-2.018;2022-09-09T06:56:00;3.97;;;1.20;;
43435;SDS011;36399;51.444;-2.018;2022-09-09T06:58:27;4.57;;;1.40;;
43435;SDS011;36399;51.444;-2.018;2022-09-09T07:01:04;5.50;;;1.73;;
43435;SDS011;36399;51.444;-2.018;2022-09-09T07:03:31;3.73;;;1.43;;
43435;SDS011;36399;51.444;-2.018;2022-09-09T07:05:57;3.60;;;1.10;;
43435;SDS011;36399;51.444;-2.018;2022-09-09T07:08:25;2.87;;;1.00;;
43435;SDS011;36399;51.444;-2.018;2022-09-09T07:10:52;4.47;;;1.83;;
43435;SDS011;36399;51.444;-2.018;2022-09-09T07:13:25;4.90;;;1.07;;
43435;SDS011;36399;51.444;-2.018;2022-09-09T07:15:52;3.43;;;0.97;;
43435;SDS011;36399;51.444;-2.018;2022-09-09T07:18:19;2.10;;;0.90;;
43435;SDS011;36399;51.444;-2.018;2022-09-09T07:20:52;2.90;;;1.20;;
43435;SDS011;36399;51.444;-2.018;2022-09-09T07:23:19;2.33;;;1.07;;
43435;SDS011;36399;51.444;-2.018;2022-09-09T07:25:45;2.33;;;1.20;;
43435;SDS011;36399;51.444;-2.018;2022-09-09T07:28:11;3.17;;;1.27;;
43435;SDS011;36399;51.444;-2.018;2022-09-09T07:30:37;2.57;;;1.03;;
43435;SDS011;36399;51.444;-2.018;2022-09-09T07:33:03;5.67;;;0.90;;
43435;SDS011;36399;51.444;-2.018;2022-09-09T07:35:29;2.83;;;0.60;;
43435;SDS011;36399;51.444;-2.018;2022-09-09T07:37:55;2.43;;;0.80;;
43435;SDS011;36399;51.444;-2.018;2022-09-09T07:40:21;3.17;;;1.10;;
43435;SDS011;36399;51.444;-2.018;2022-09-09T07:42:47;2.10;;;1.07;;
43435;SDS011;36399;51.444;-2.018;2022-09-09T07:45:13;2.90;;;0.70;;
43435;SDS011;36399;51.444;-2.018;2022-09-09T07:47:40;5.80;;;1.47;;
43435;SDS011;36399;51.444;-2.018;2022-09-09T07:50:08;2.90;;;0.83;;
43435;SDS011;36399;51.444;-2.018;2022-09-09T07:52:35;1.83;;;0.70;;
43435;SDS011;36399;51.444;-2.018;2022-09-09T07:55:02;3.20;;;1.03;;
43435;SDS011;36399;51.444;-2.018;2022-09-09T07:57:29;2.53;;;0.80;;
43435;SDS011;36399;51.444;-2.018;2022-09-09T07:59:56;2.57;;;0.93;;
43435;SDS011;36399;51.444;-2.018;2022-09-09T08:02:23;2.70;;;0.80;;
43435;SDS011;36399;51.444;-2.018;2022-09-09T08:04:51;1.93;;;0.90;;
43435;SDS011;36399;51.444;-2.018;2022-09-09T08:07:17;1.53;;;0.43;;
43435;SDS011;36399;51.444;-2.018;2022-09-09T08:09:43;2.87;;;1.27;;
43435;SDS011;36399;51.444;-2.018;2022-09-09T08:12:09;3.37;;;1.50;;
43435;SDS011;36399;51.444;-2.018;2022-09-09T08:14:38;3.67;;;0.90;;
43435;SDS011;36399;51.444;-2.018;2022-09-09T08:17:05;3.20;;;0.90;;
43435;SDS011;36399;51.444;-2.018;2022-09-09T08:19:31;2.43;;;0.77;;
43435;SDS011;36399;51.444;-2.018;2022-09-09T08:22:01;1.17;;;0.57;;
43435;SDS011;36399;51.444;-2.018;2022-09-09T08:24:28;4.33;;;0.73;;
43435;SDS011;36399;51.444;-2.018;2022-09-09T08:26:54;3.00;;;0.60;;
43435;SDS011;36399;51.444;-2.018;2022-09-09T08:29:22;4.85;;;0.60;;
43435;SDS011;36399;51.444;-2.018;2022-09-09T08:31:49;1.83;;;0.60;;
43435;SDS011;36399;51.444;-2.018;2022-09-09T08:34:17;2.57;;;0.50;;
43435;SDS011;36399;51.444;-2.018;2022-09-09T08:36:45;1.23;;;0.50;;
43435;SDS011;36399;51.444;-2.018;2022-09-09T08:39:13;1.33;;;0.60;;
43435;SDS011;36399;51.444;-2.018;2022-09-09T08:55:37;2.13;;;0.65;;
43435;SDS011;36399;51.444;-2.018;2022-09-09T08:58:15;3.20;;;0.80;;
43435;SDS011;36399;51.444;-2.018;2022-09-09T09:09:10;1.23;;;0.50;;
43435;SDS011;36399;51.444;-2.018;2022-09-09T09:11:55;0.98;;;0.43;;
43435;SDS011;36399;51.444;-2.018;2022-09-09T09:14:29;0.93;;;0.35;;
43435;SDS011;36399;51.444;-2.018;2022-09-09T09:17:00;3.05;;;0.40;;
43435;SDS011;36399;51.444;-2.018;2022-09-09T09:19:32;1.65;;;0.30;;
43435;SDS011;36399;51.444;-2.018;2022-09-09T09:30:00;1.65;;;0.60;;
43435;SDS011;36399;51.444;-2.018;2022-09-09T09:32:32;1.30;;;0.30;;
43435;SDS011;36399;51.444;-2.018;2022-09-09T09:35:00;1.52;;;0.28;;
43435;SDS011;36399;51.444;-2.018;2022-09-09T09:37:31;0.47;;;0.30;;
43435;SDS011;36399;51.444;-2.018;2022-09-09T09:40:16;0.20;;;0.20;;
43435;SDS011;36399;51.444;-2.018;2022-09-09T09:42:48;1.40;;;0.30;;
43435;SDS011;36399;51.444;-2.018;2022-09-09T09:48:08;1.40;;;0.60;;
43435;SDS011;36399;51.444;-2.018;2022-09-09T09:50:40;1.85;;;0.60;;
43435;SDS011;36399;51.444;-2.018;2022-09-09T09:53:30;3.72;;;0.63;;
43435;SDS011;36399;51.444;-2.018;2022-09-09T09:55:59;1.05;;;0.32;;
43435;SDS011;36399;51.444;-2.018;2022-09-09T10:03:51;0.85;;;0.43;;
43435;SDS011;36399;51.444;-2.018;2022-09-09T10:06:40;1.90;;;0.50;;
43435;SDS011;36399;51.444;-2.018;2022-09-09T10:14:55;0.88;;;0.38;;
43435;SDS011;36399;51.444;-2.018;2022-09-09T10:20:23;1.42;;;0.93;;
43435;SDS011;36399;51.444;-2.018;2022-09-09T10:23:08;2.70;;;0.60;;
43435;SDS011;36399;51.444;-2.018;2022-09-09T10:36:55;1.52;;;0.50;;
43435;SDS011;36399;51.444;-2.018;2022-09-09T10:55:28;1.20;;;0.50;;
43435;SDS011;36399;51.444;-2.018;2022-09-09T10:58:09;5.05;;;0.70;;
43435;SDS011;36399;51.444;-2.018;2022-09-09T11:00:40;3.58;;;0.50;;
43435;SDS011;36399;51.444;-2.018;2022-09-09T11:03:18;2.45;;;0.40;;
43435;SDS011;36399;51.444;-2.018;2022-09-09T11:05:51;1.02;;;0.40;;
43435;SDS011;36399;51.444;-2.018;2022-09-09T11:10:58;1.55;;;0.43;;
43435;SDS011;36399;51.444;-2.018;2022-09-09T11:13:35;1.83;;;0.57;;
43435;SDS011;36399;51.444;-2.018;2022-09-09T11:18:55;1.00;;;0.50;;
43435;SDS011;36399;51.444;-2.018;2022-09-09T11:21:31;2.28;;;0.80;;
43435;SDS011;36399;51.444;-2.018;2022-09-09T11:24:12;0.90;;;0.40;;
43435;SDS011;36399;51.444;-2.018;2022-09-09T11:26:47;5.20;;;0.50;;
43435;SDS011;36399;51.444;-2.018;2022-09-09T11:30:43;1.38;;;0.52;;
43435;SDS011;36399;51.444;-2.018;2022-09-09T11:38:51;2.55;;;0.60;;
43435;SDS011;36399;51.444;-2.018;2022-09-09T11:41:18;2.95;;;0.88;;
43435;SDS011;36399;51.444;-2.018;2022-09-09T11:43:46;2.08;;;0.60;;
43435;SDS011;36399;51.444;-2.018;2022-09-09T11:46:19;1.38;;;0.38;;
43435;SDS011;36399;51.444;-2.018;2022-09-09T11:48:58;1.17;;;0.50;;
43435;SDS011;36399;51.444;-2.018;2022-09-09T11:51:27;0.60;;;0.17;;
43435;SDS011;36399;51.444;-2.018;2022-09-09T11:53:57;1.23;;;0.40;;
43435;SDS011;36399;51.444;-2.018;2022-09-09T11:56:45;0.40;;;0.20;;
43435;SDS011;36399;51.444;-2.018;2022-09-09T12:02:12;3.13;;;0.50;;
43435;SDS011;36399;51.444;-2.018;2022-09-09T12:05:28;1.10;;;0.30;;
43435;SDS011;36399;51.444;-2.018;2022-09-09T12:07:38;0.85;;;0.35;;
43435;SDS011;36399;51.444;-2.018;2022-09-09T12:12:46;1.95;;;0.30;;
43435;SDS011;36399;51.444;-2.018;2022-09-09T12:17:45;1.10;;;0.47;;
43435;SDS011;36399;51.444;-2.018;2022-09-09T12:30:49;1.27;;;0.30;;
43435;SDS011;36399;51.444;-2.018;2022-09-09T12:33:22;0.95;;;0.82;;
43435;SDS011;36399;51.444;-2.018;2022-09-09T12:35:51;2.08;;;0.50;;
43435;SDS011;36399;51.444;-2.018;2022-09-09T12:38:29;0.73;;;0.30;;
43435;SDS011;36399;51.444;-2.018;2022-09-09T12:40:57;1.73;;;0.40;;
43435;SDS011;36399;51.444;-2.018;2022-09-09T12:43:24;2.72;;;0.40;;
43435;SDS011;36399;51.444;-2.018;2022-09-09T12:45:53;1.70;;;0.68;;
43435;SDS011;36399;51.444;-2.018;2022-09-09T12:48:26;2.38;;;0.68;;
43435;SDS011;36399;51.444;-2.018;2022-09-09T12:51:05;2.08;;;0.75;;
43435;SDS011;36399;51.444;-2.018;2022-09-09T12:53:42;1.60;;;0.45;;
43435;SDS011;36399;51.444;-2.018;2022-09-09T12:56:08;1.10;;;0.40;;
43435;SDS011;36399;51.444;-2.018;2022-09-09T12:58:45;0.50;;;0.30;;
43435;SDS011;36399;51.444;-2.018;2022-09-09T13:01:23;0.75;;;0.35;;
43435;SDS011;36399;51.444;-2.018;2022-09-09T13:03:51;0.98;;;0.43;;
43435;SDS011;36399;51.444;-2.018;2022-09-09T13:06:20;1.95;;;0.47;;
43435;SDS011;36399;51.444;-2.018;2022-09-09T13:08:50;1.58;;;0.55;;
43435;SDS011;36399;51.444;-2.018;2022-09-09T13:11:22;1.00;;;0.30;;
43435;SDS011;36399;51.444;-2.018;2022-09-09T13:13:54;1.10;;;0.38;;
43435;SDS011;36399;51.444;-2.018;2022-09-09T13:16:23;0.47;;;0.30;;
43435;SDS011;36399;51.444;-2.018;2022-09-09T13:18:59;1.55;;;0.47;;
43435;SDS011;36399;51.444;-2.018;2022-09-09T13:21:33;1.10;;;0.40;;
43435;SDS011;36399;51.444;-2.018;2022-09-09T13:24:01;0.40;;;0.20;;
43435;SDS011;36399;51.444;-2.018;2022-09-09T13:26:28;1.40;;;0.40;;
43435;SDS011;36399;51.444;-2.018;2022-09-09T13:28:55;1.60;;;0.40;;
43435;SDS011;36399;51.444;-2.018;2022-09-09T13:31:43;1.45;;;0.60;;
43435;SDS011;36399;51.444;-2.018;2022-09-09T13:34:11;1.38;;;0.60;;
43435;SDS011;36399;51.444;-2.018;2022-09-09T13:36:53;2.10;;;0.70;;
43435;SDS011;36399;51.444;-2.018;2022-09-09T13:39:24;2.17;;;0.60;;
43435;SDS011;36399;51.444;-2.018;2022-09-09T13:41:50;1.05;;;0.57;;
43435;SDS011;36399;51.444;-2.018;2022-09-09T13:44:23;1.83;;;0.90;;
43435;SDS011;36399;51.444;-2.018;2022-09-09T13:47:03;2.97;;;1.60;;
43435;SDS011;36399;51.444;-2.018;2022-09-09T13:49:29;2.55;;;1.10;;
43435;SDS011;36399;51.444;-2.018;2022-09-09T13:52:12;2.88;;;1.40;;
43435;SDS011;36399;51.444;-2.018;2022-09-09T13:54:40;2.05;;;1.15;;
43435;SDS011;36399;51.444;-2.018;2022-09-09T13:57:17;3.83;;;0.90;;
43435;SDS011;36399;51.444;-2.018;2022-09-09T13:59:51;1.90;;;0.88;;
43435;SDS011;36399;51.444;-2.018;2022-09-09T14:02:18;1.80;;;0.80;;
43435;SDS011;36399;51.444;-2.018;2022-09-09T14:04:44;1.67;;;0.75;;
43435;SDS011;36399;51.444;-2.018;2022-09-09T14:07:14;1.95;;;0.70;;
43435;SDS011;36399;51.444;-2.018;2022-09-09T14:09:42;1.92;;;0.70;;
43435;SDS011;36399;51.444;-2.018;2022-09-09T14:12:11;1.83;;;0.57;;
43435;SDS011;36399;51.444;-2.018;2022-09-09T14:14:38;0.93;;;0.40;;
43435;SDS011;36399;51.444;-2.018;2022-09-09T14:17:04;2.53;;;0.77;;
43435;SDS011;36399;51.444;-2.018;2022-09-09T14:19:30;3.95;;;0.70;;
43435;SDS011;36399;51.444;-2.018;2022-09-09T14:21:57;1.40;;;0.75;;
43435;SDS011;36399;51.444;-2.018;2022-09-09T14:24:23;2.63;;;0.40;;
43435;SDS011;36399;51.444;-2.018;2022-09-09T14:26:49;1.85;;;0.43;;
43435;SDS011;36399;51.444;-2.018;2022-09-09T14:29:15;0.88;;;0.30;;
43435;SDS011;36399;51.444;-2.018;2022-09-09T14:31:41;0.82;;;0.20;;
43435;SDS011;36399;51.444;-2.018;2022-09-09T14:34:07;0.70;;;0.32;;
43435;SDS011;36399;51.444;-2.018;2022-09-09T14:36:33;1.17;;;0.40;;
43435;SDS011;36399;51.444;-2.018;2022-09-09T14:38:59;1.38;;;0.40;;
43435;SDS011;36399;51.444;-2.018;2022-09-09T14:41:25;1.60;;;0.40;;
43435;SDS011;36399;51.444;-2.018;2022-09-09T14:43:51;1.17;;;0.40;;
43435;SDS011;36399;51.444;-2.018;2022-09-09T14:46:18;0.65;;;0.30;;
43435;SDS011;36399;51.444;-2.018;2022-09-09T14:48:45;0.63;;;0.30;;
43435;SDS011;36399;51.444;-2.018;2022-09-09T14:51:15;1.02;;;0.50;;
43435;SDS011;36399;51.444;-2.018;2022-09-09T14:53:43;0.75;;;0.40;;
43435;SDS011;36399;51.444;-2.018;2022-09-09T14:56:17;1.65;;;0.47;;
43435;SDS011;36399;51.444;-2.018;2022-09-09T14:58:45;1.35;;;0.63;;
43435;SDS011;36399;51.444;-2.018;2022-09-09T15:01:12;1.65;;;0.75;;
43435;SDS011;36399;51.444;-2.018;2022-09-09T15:03:41;0.85;;;0.52;;
43435;SDS011;36399;51.444;-2.018;2022-09-09T15:06:09;3.60;;;0.88;;
43435;SDS011;36399;51.444;-2.018;2022-09-09T15:08:37;2.15;;;0.82;;
43435;SDS011;36399;51.444;-2.018;2022-09-09T15:11:05;2.03;;;0.70;;
43435;SDS011;36399;51.444;-2.018;2022-09-09T15:13:35;2.10;;;0.85;;
43435;SDS011;36399;51.444;-2.018;2022-09-09T15:16:04;1.77;;;0.70;;
43435;SDS011;36399;51.444;-2.018;2022-09-09T15:18:31;1.35;;;0.70;;
43435;SDS011;36399;51.444;-2.018;2022-09-09T15:20:59;2.53;;;0.68;;
43435;SDS011;36399;51.444;-2.018;2022-09-09T15:23:26;1.10;;;0.55;;
43435;SDS011;36399;51.444;-2.018;2022-09-09T15:25:53;3.47;;;0.88;;
43435;SDS011;36399;51.444;-2.018;2022-09-09T15:28:21;1.38;;;0.75;;
43435;SDS011;36399;51.444;-2.018;2022-09-09T15:30:47;2.80;;;0.75;;
43435;SDS011;36399;51.444;-2.018;2022-09-09T15:33:14;3.90;;;0.90;;
43435;SDS011;36399;51.444;-2.018;2022-09-09T15:35:40;3.90;;;1.00;;
43435;SDS011;36399;51.444;-2.018;2022-09-09T15:38:06;2.20;;;1.00;;
43435;SDS011;36399;51.444;-2.018;2022-09-09T15:40:32;2.17;;;1.00;;
43435;SDS011;36399;51.444;-2.018;2022-09-09T15:42:58;2.08;;;0.90;;
43435;SDS011;36399;51.444;-2.018;2022-09-09T15:45:24;3.38;;;1.38;;
43435;SDS011;36399;51.444;-2.018;2022-09-09T15:47:51;3.88;;;1.65;;
43435;SDS011;36399;51.444;-2.018;2022-09-09T15:50:17;2.60;;;1.10;;
43435;SDS011;36399;51.444;-2.018;2022-09-09T15:52:43;3.60;;;1.00;;
43435;SDS011;36399;51.444;-2.018;2022-09-09T15:55:10;2.25;;;0.93;;
43435;SDS011;36399;51.444;-2.018;2022-09-09T15:57:35;3.33;;;0.90;;
43435;SDS011;36399;51.444;-2.018;2022-09-09T16:00:03;3.05;;;1.02;;
43435;SDS011;36399;51.444;-2.018;2022-09-09T16:02:30;1.05;;;0.70;;
43435;SDS011;36399;51.444;-2.018;2022-09-09T16:04:56;1.98;;;0.75;;
43435;SDS011;36399;51.444;-2.018;2022-09-09T16:07:22;1.95;;;1.20;;
43435;SDS011;36399;51.444;-2.018;2022-09-09T16:09:48;4.38;;;1.35;;
43435;SDS011;36399;51.444;-2.018;2022-09-09T16:12:16;2.55;;;1.10;;
43435;SDS011;36399;51.444;-2.018;2022-09-09T16:14:42;2.22;;;1.00;;
43435;SDS011;36399;51.444;-2.018;2022-09-09T16:17:08;2.72;;;1.17;;
43435;SDS011;36399;51.444;-2.018;2022-09-09T16:19:34;3.58;;;1.20;;
43435;SDS011;36399;51.444;-2.018;2022-09-09T16:22:00;1.20;;;0.68;;
43435;SDS011;36399;51.444;-2.018;2022-09-09T16:24:26;1.33;;;0.63;;
43435;SDS011;36399;51.444;-2.018;2022-09-09T16:26:54;1.88;;;0.60;;
43435;SDS011;36399;51.444;-2.018;2022-09-09T16:29:20;1.77;;;0.88;;
43435;SDS011;36399;51.444;-2.018;2022-09-09T16:31:48;1.98;;;0.82;;
43435;SDS011;36399;51.444;-2.018;2022-09-09T16:34:15;1.25;;;0.40;;
43435;SDS011;36399;51.444;-2.018;2022-09-09T16:36:43;2.65;;;1.23;;
43435;SDS011;36399;51.444;-2.018;2022-09-09T16:39:11;1.27;;;0.98;;
43435;SDS011;36399;51.444;-2.018;2022-09-09T16:41:42;1.52;;;0.50;;
43435;SDS011;36399;51.444;-2.018;2022-09-09T16:44:11;0.40;;;0.32;;
43435;SDS011;36399;51.444;-2.018;2022-09-09T16:46:39;2.30;;;0.60;;
43435;SDS011;36399;51.444;-2.018;2022-09-09T16:49:08;1.10;;;0.80;;
43435;SDS011;36399;51.444;-2.018;2022-09-09T16:51:36;0.95;;;0.30;;
43435;SDS011;36399;51.444;-2.018;2022-09-09T16:54:05;1.58;;;0.40;;
43435;SDS011;36399;51.444;-2.018;2022-09-09T16:56:36;2.00;;;0.60;;
43435;SDS011;36399;51.444;-2.018;2022-09-09T16:59:05;1.40;;;0.57;;
43435;SDS011;36399;51.444;-2.018;2022-09-09T17:01:34;3.00;;;0.60;;
43435;SDS011;36399;51.444;-2.018;2022-09-09T17:04:07;1.83;;;0.70;;
43435;SDS011;36399;51.444;-2.018;2022-09-09T17:06:36;2.92;;;1.35;;
43435;SDS011;36399;51.444;-2.018;2022-09-09T17:09:10;2.80;;;1.20;;
43435;SDS011;36399;51.444;-2.018;2022-09-09T17:11:37;4.20;;;0.90;;
43435;SDS011;36399;51.444;-2.018;2022-09-09T17:14:05;1.75;;;0.70;;
43435;SDS011;36399;51.444;-2.018;2022-09-09T17:16:34;2.58;;;0.85;;
43435;SDS011;36399;51.444;-2.018;2022-09-09T17:19:01;2.42;;;0.88;;